HU-0006 weather

Szatymaz Airport
Szatymaz, Csongrád, Hungary

Public forecast

Using degrees Celsius for public forecast. Weather courtesy of forecast.io.

METAR (pilot weather report)

Report is more than 2 hours old.

Closest report is Szeged Airfield, 4.8 nm (8.9 km) SSE. Retrieved 2019/06/17 23:45 UTC (2 hours ago):

LHUD 172345Z 02009KT 9999 FEW040 BKN200 20/17 Q1017

TAF (pilot weather forecast)

Forecast is more than 12 hours old.

Closest forecast is KecskemĂ©t Airport, 37.9 nm (70.1 km) NNW. Retrieved 2017/10/21 15:33 UTC (2 years ago):

TAF TAF LHKE 211415Z 2115/2224 29004KT CAVOK BECMG 2117/2119 8000 NSC BECMG 2119/2122 5000 BR MIBCFG NSC BECMG 2122/2224 VRB03KT 3000 BR